createdAt,value
2019-03-02T00:00:10.511Z,5.40
2019-03-02T00:02:39.064Z,5.40
2019-03-02T00:05:07.655Z,5.50
2019-03-02T00:07:36.094Z,5.50
2019-03-02T00:10:06.702Z,5.40
2019-03-02T00:12:36.665Z,5.40
2019-03-02T00:15:06.455Z,5.40
2019-03-02T00:17:36.547Z,5.50
2019-03-02T00:20:06.677Z,5.50
2019-03-02T00:22:35.120Z,5.50
2019-03-02T00:25:04.515Z,5.40
2019-03-02T00:27:32.952Z,5.40
2019-03-02T00:30:01.479Z,5.40
2019-03-02T00:32:29.992Z,5.50
2019-03-02T00:34:58.449Z,5.50
2019-03-02T00:37:29.628Z,5.50
2019-03-02T00:39:57.333Z,5.50
2019-03-02T00:42:25.871Z,5.50
2019-03-02T00:44:54.310Z,5.50
2019-03-02T00:47:22.901Z,5.50
2019-03-02T00:49:51.337Z,5.50
2019-03-02T00:52:20.453Z,5.50
2019-03-02T00:54:57.793Z,5.40
2019-03-02T00:57:20.142Z,5.40
2019-03-02T00:59:48.591Z,5.50
2019-03-02T01:02:17.061Z,5.50
2019-03-02T01:04:45.491Z,5.50
2019-03-02T01:07:14.033Z,5.40
2019-03-02T01:09:43.615Z,5.50
2019-03-02T01:12:13.011Z,5.40
2019-03-02T01:14:41.449Z,5.50
2019-03-02T01:17:09.977Z,5.40
2019-03-02T01:19:38.688Z,5.40
2019-03-02T01:22:07.220Z,5.40
2019-03-02T01:24:38.781Z,5.50
2019-03-02T01:27:05.858Z,5.40
2019-03-02T01:29:34.296Z,5.40
2019-03-02T01:32:02.820Z,5.40
2019-03-02T01:34:31.350Z,5.40
2019-03-02T01:36:59.944Z,5.40
2019-03-02T01:39:29.267Z,5.40
2019-03-02T01:41:58.616Z,5.40
2019-03-02T01:44:27.105Z,5.40
2019-03-02T01:46:55.536Z,5.10
2019-03-02T01:49:23.996Z,5.30
2019-03-02T01:51:54.659Z,5.30
2019-03-02T01:54:22.624Z,5.30
2019-03-02T01:56:51.243Z,5.30
2019-03-02T01:59:19.716Z,5.30
2019-03-02T02:01:48.148Z,5.30
2019-03-02T02:04:18.804Z,5.30
2019-03-02T02:06:46.832Z,5.30
2019-03-02T02:09:15.534Z,5.20
2019-03-02T02:11:44.513Z,5.20
2019-03-02T02:14:14.902Z,5.20
2019-03-02T02:16:43.210Z,5.20
2019-03-02T02:19:11.736Z,5.20
2019-03-02T02:21:40.168Z,5.20
2019-03-02T02:24:08.615Z,5.20
2019-03-02T02:26:37.056Z,5.20
2019-03-02T02:29:08.258Z,5.20
2019-03-02T02:31:44.345Z,5.20
2019-03-02T02:34:06.293Z,5.20
2019-03-02T02:36:34.805Z,5.20
2019-03-02T02:39:04.412Z,5.20
2019-03-02T02:41:32.923Z,5.20
2019-03-02T02:44:01.474Z,5.20
2019-03-02T02:46:32.521Z,5.20
2019-03-02T02:49:00.215Z,5.20
2019-03-02T02:51:28.754Z,5.20
2019-03-02T02:53:57.469Z,5.20
2019-03-02T02:56:25.928Z,5.20
2019-03-02T02:58:56.189Z,5.20
2019-03-02T03:01:33.177Z,5.20
2019-03-02T03:03:59.262Z,5.30
2019-03-02T03:06:28.602Z,5.30
2019-03-02T03:08:55.181Z,5.30
2019-03-02T03:11:23.707Z,5.30
2019-03-02T03:13:52.142Z,5.30
2019-03-02T03:16:20.606Z,5.30
2019-03-02T03:18:52.389Z,5.30
2019-03-02T03:21:27.236Z,5.30
2019-03-02T03:23:49.384Z,5.30
2019-03-02T03:26:17.836Z,5.30
2019-03-02T03:28:46.279Z,5.40
2019-03-02T03:31:23.159Z,5.40
2019-03-02T03:33:47.190Z,5.40
2019-03-02T03:36:15.148Z,5.40
2019-03-02T03:38:43.600Z,5.40
2019-03-02T03:41:12.127Z,5.40
2019-03-02T03:43:42.571Z,5.40
2019-03-02T03:46:10.792Z,5.40
2019-03-02T03:48:39.317Z,5.40
2019-03-02T03:51:07.773Z,5.40
2019-03-02T03:53:36.314Z,5.40
2019-03-02T03:56:05.605Z,5.40
2019-03-02T03:58:35.204Z,5.40
2019-03-02T04:01:04.887Z,5.50
2019-03-02T04:03:33.667Z,5.50
2019-03-02T04:06:02.131Z,5.50
2019-03-02T04:08:30.661Z,5.50
2019-03-02T04:11:00.314Z,5.50
2019-03-02T04:13:29.289Z,5.60
2019-03-02T04:15:57.801Z,5.50
2019-03-02T04:18:41.628Z,5.60
2019-03-02T04:21:10.130Z,5.60
2019-03-02T04:23:38.665Z,5.60
2019-03-02T04:26:07.097Z,5.60
2019-03-02T04:28:35.565Z,5.70
2019-03-02T04:31:04.534Z,5.70
2019-03-02T04:33:34.184Z,5.70
2019-03-02T04:36:09.669Z,5.70
2019-03-02T04:38:33.584Z,5.70
2019-03-02T04:41:04.081Z,5.70
2019-03-02T04:43:32.713Z,5.80
2019-03-02T04:46:01.158Z,5.80
2019-03-02T04:48:29.620Z,5.80
2019-03-02T04:50:59.612Z,5.80
2019-03-02T04:53:28.290Z,5.70
2019-03-02T04:55:56.736Z,5.80
2019-03-02T04:58:25.196Z,5.80
2019-03-02T05:00:53.640Z,5.80
2019-03-02T05:03:22.092Z,5.70
2019-03-02T05:05:50.523Z,5.70
2019-03-02T05:08:18.984Z,5.70
2019-03-02T05:10:47.424Z,5.70
2019-03-02T05:13:15.893Z,5.70
2019-03-02T05:15:44.327Z,5.70
2019-03-02T05:18:14.762Z,5.70
2019-03-02T05:20:42.954Z,5.80
2019-03-02T05:23:11.413Z,5.70
2019-03-02T05:25:39.940Z,5.80
2019-03-02T05:28:08.443Z,5.80
2019-03-02T05:30:36.888Z,5.70
2019-03-02T05:33:05.424Z,5.80
2019-03-02T05:35:33.853Z,5.80
2019-03-02T05:38:02.364Z,5.70
2019-03-02T05:40:31.600Z,5.70
2019-03-02T05:43:00.305Z,5.80
2019-03-02T05:45:28.769Z,5.70
2019-03-02T05:47:57.209Z,5.80
2019-03-02T05:50:26.533Z,5.80
2019-03-02T05:52:55.928Z,5.80
2019-03-02T05:55:24.373Z,5.80
2019-03-02T05:57:52.812Z,5.80
2019-03-02T06:00:23.139Z,5.80
2019-03-02T06:02:51.576Z,5.80
2019-03-02T06:05:20.031Z,5.80
2019-03-02T06:07:48.477Z,5.80
2019-03-02T06:10:16.937Z,5.80
2019-03-02T06:12:48.019Z,5.70
2019-03-02T06:15:16.282Z,5.80
2019-03-02T06:17:44.716Z,5.90
2019-03-02T06:20:13.729Z,5.90
2019-03-02T06:22:42.313Z,5.80
2019-03-02T06:25:20.469Z,5.90
2019-03-02T06:27:47.304Z,5.90
2019-03-02T06:30:16.876Z,5.90
2019-03-02T06:32:45.313Z,5.90
2019-03-02T06:35:14.011Z,6.00
2019-03-02T06:37:42.516Z,6.00
2019-03-02T06:40:15.921Z,6.00
2019-03-02T06:42:45.654Z,6.00
2019-03-02T06:45:17.603Z,6.00
2019-03-02T06:47:46.216Z,6.00
2019-03-02T06:50:16.014Z,6.00
2019-03-02T06:52:44.592Z,6.00
2019-03-02T06:55:14.636Z,6.00
2019-03-02T06:57:46.074Z,6.10
2019-03-02T07:00:18.240Z,6.10
2019-03-02T07:02:46.764Z,6.10
2019-03-02T07:05:15.342Z,6.10
2019-03-02T07:07:43.869Z,6.10
2019-03-02T07:10:17.686Z,6.10
2019-03-02T07:12:46.868Z,6.20
2019-03-02T07:15:15.847Z,6.20
2019-03-02T07:17:45.961Z,6.20
2019-03-02T07:20:16.585Z,6.20
2019-03-02T07:22:45.053Z,6.20
2019-03-02T07:25:14.732Z,6.20
2019-03-02T07:27:43.329Z,6.20
2019-03-02T07:30:12.600Z,6.30
2019-03-02T07:32:41.449Z,6.30
2019-03-02T07:35:10.566Z,6.30
2019-03-02T07:37:40.682Z,6.40
2019-03-02T07:40:13.360Z,6.30
2019-03-02T07:42:41.890Z,6.40
2019-03-02T07:45:13.477Z,6.40
2019-03-02T07:47:41.990Z,6.50
2019-03-02T07:50:11.480Z,6.50
2019-03-02T07:52:40.281Z,6.50
2019-03-02T07:55:14.660Z,6.50
2019-03-02T07:57:43.737Z,6.60
2019-03-02T08:00:20.157Z,6.60
2019-03-02T08:02:48.632Z,6.60
2019-03-02T08:05:17.517Z,6.70
2019-03-02T08:07:46.046Z,6.80
2019-03-02T08:10:14.574Z,6.80
2019-03-02T08:12:43.151Z,6.90
2019-03-02T08:15:20.124Z,6.90
2019-03-02T08:17:49.065Z,6.90
2019-03-02T08:20:20.712Z,7.00
2019-03-02T08:22:48.171Z,7.00
2019-03-02T08:25:16.773Z,7.00
2019-03-02T08:27:45.210Z,7.00
2019-03-02T08:30:23.789Z,7.00
2019-03-02T08:32:54.082Z,7.10
2019-03-02T08:35:22.501Z,7.10
2019-03-02T08:37:51.023Z,7.10
2019-03-02T08:40:23.289Z,7.10
2019-03-02T08:42:50.377Z,7.20
2019-03-02T08:45:19.894Z,7.20
2019-03-02T08:47:48.420Z,7.30
2019-03-02T08:50:18.815Z,7.40
2019-03-02T08:52:47.700Z,7.40
2019-03-02T08:55:22.156Z,7.50
2019-03-02T08:57:53.896Z,7.50
2019-03-02T09:00:27.424Z,7.50
2019-03-02T09:02:58.912Z,7.40
2019-03-02T09:05:42.783Z,7.40
2019-03-02T09:07:56.357Z,7.40
2019-03-02T09:10:24.865Z,7.50
2019-03-02T09:12:57.978Z,7.50
2019-03-02T09:15:30.181Z,7.50
2019-03-02T09:17:58.458Z,7.50
2019-03-02T09:20:26.915Z,7.70
2019-03-02T09:22:56.325Z,7.80
2019-03-02T09:25:27.877Z,8.00
2019-03-02T09:27:56.229Z,8.10
2019-03-02T09:30:24.737Z,8.20
2019-03-02T09:32:54.932Z,8.50
2019-03-02T09:35:23.452Z,8.70
2019-03-02T09:37:52.249Z,8.90
2019-03-02T09:40:24.301Z,9.00
2019-03-02T09:42:52.469Z,9.00
2019-03-02T09:45:21.051Z,8.90
2019-03-02T09:47:51.926Z,8.90
2019-03-02T09:50:21.724Z,9.00
2019-03-02T09:52:50.685Z,9.10
2019-03-02T09:55:20.232Z,9.40
2019-03-02T09:57:49.385Z,9.50
2019-03-02T10:00:26.114Z,9.90
2019-03-02T10:02:55.254Z,10.00
2019-03-02T10:05:26.061Z,10.10
2019-03-02T10:07:54.532Z,10.20
2019-03-02T10:10:25.228Z,10.20
2019-03-02T10:12:53.428Z,10.00
2019-03-02T10:15:29.483Z,9.80
2019-03-02T10:17:58.018Z,10.00
2019-03-02T10:20:26.531Z,10.00
2019-03-02T10:22:55.120Z,10.10
2019-03-02T10:25:26.508Z,10.00
2019-03-02T10:27:57.066Z,10.20
2019-03-02T10:30:26.160Z,10.20
2019-03-02T10:32:55.799Z,10.20
2019-03-02T10:35:25.245Z,10.20
2019-03-02T10:37:53.676Z,10.40
2019-03-02T10:40:23.311Z,10.20
2019-03-02T10:42:52.138Z,10.20
2019-03-02T10:45:21.864Z,10.20
2019-03-02T10:47:50.453Z,10.60
2019-03-02T10:50:24.949Z,10.60
2019-03-02T10:52:53.958Z,10.60
2019-03-02T10:55:23.697Z,10.70
2019-03-02T10:57:52.376Z,10.60
2019-03-02T11:00:29.750Z,10.70
2019-03-02T11:03:01.834Z,10.90
2019-03-02T11:05:48.898Z,10.70
2019-03-02T11:08:21.772Z,10.50
2019-03-02T11:11:05.920Z,10.70
2019-03-02T11:13:36.089Z,11.00
2019-03-02T11:16:06.804Z,10.80
2019-03-02T11:18:36.932Z,10.90
2019-03-02T11:21:23.252Z,10.90
2019-03-02T11:24:08.268Z,11.00
2019-03-02T11:26:56.891Z,11.30
2019-03-02T11:29:30.115Z,11.20
2019-03-02T11:32:00.471Z,11.00
2019-03-02T11:34:46.650Z,11.00
2019-03-02T11:37:25.637Z,11.10
2019-03-02T11:40:00.516Z,11.30
2019-03-02T11:42:30.647Z,11.20
2019-03-02T11:45:00.824Z,11.10
2019-03-02T11:47:46.900Z,11.20
2019-03-02T11:50:28.881Z,11.20
2019-03-02T11:53:01.677Z,11.10
2019-03-02T11:55:47.201Z,11.40
2019-03-02T11:58:23.128Z,11.40
2019-03-02T12:01:09.541Z,11.20
2019-03-02T12:03:43.022Z,10.70
2019-03-02T12:06:16.248Z,10.60
2019-03-02T12:08:54.859Z,10.70
2019-03-02T12:11:24.361Z,10.80
2019-03-02T12:14:10.210Z,11.00
2019-03-02T12:16:47.585Z,10.80
2019-03-02T12:19:20.733Z,10.80
2019-03-02T12:22:06.221Z,11.00
2019-03-02T12:24:36.401Z,11.10
2019-03-02T12:27:18.815Z,11.20
2019-03-02T12:29:50.875Z,11.30
2019-03-02T12:32:23.826Z,11.20
2019-03-02T12:35:05.447Z,11.20
2019-03-02T12:37:37.327Z,11.00
2019-03-02T12:40:10.409Z,11.00
2019-03-02T12:42:43.500Z,11.00
2019-03-02T12:45:16.829Z,11.10
2019-03-02T12:47:55.964Z,11.30
2019-03-02T12:50:28.098Z,11.30
2019-03-02T12:53:16.230Z,11.20
2019-03-02T12:55:56.820Z,11.20
2019-03-02T12:58:42.029Z,11.00
2019-03-02T13:01:27.511Z,11.00
2019-03-02T13:04:09.352Z,10.90
2019-03-02T13:06:41.016Z,10.90
2019-03-02T13:09:18.838Z,10.80
2019-03-02T13:11:48.924Z,10.70
2019-03-02T13:14:34.452Z,10.70
2019-03-02T13:17:10.707Z,10.90
2019-03-02T13:19:40.813Z,10.70
2019-03-02T13:22:13.444Z,10.30
2019-03-02T13:24:53.806Z,10.30
2019-03-02T13:27:27.420Z,10.30
2019-03-02T13:30:12.831Z,10.20
2019-03-02T13:32:57.942Z,10.10
2019-03-02T13:35:30.612Z,10.10
2019-03-02T13:38:00.698Z,10.00
2019-03-02T13:40:33.593Z,10.10
2019-03-02T13:43:19.117Z,10.10
2019-03-02T13:45:55.428Z,10.20
2019-03-02T13:48:40.682Z,10.10
2019-03-02T13:51:30.046Z,10.20
2019-03-02T13:54:02.079Z,10.30
2019-03-02T13:56:33.709Z,10.40
2019-03-02T13:59:03.788Z,10.30
2019-03-02T14:01:48.664Z,10.30
2019-03-02T14:04:28.225Z,10.40
2019-03-02T14:07:14.288Z,10.20
2019-03-02T14:09:44.376Z,10.20
2019-03-02T14:12:20.857Z,10.20
2019-03-02T14:14:54.053Z,10.30
2019-03-02T14:17:39.454Z,10.30
2019-03-02T14:20:15.957Z,10.30
2019-03-02T14:22:58.113Z,10.40
2019-03-02T14:25:28.361Z,10.30
2019-03-02T14:28:07.240Z,10.30
2019-03-02T14:30:46.441Z,10.30
2019-03-02T14:33:25.702Z,10.30
2019-03-02T14:35:57.448Z,10.40
2019-03-02T14:38:38.189Z,10.40
2019-03-02T14:41:28.190Z,10.30
2019-03-02T14:44:11.120Z,10.40
2019-03-02T14:46:41.201Z,10.20
2019-03-02T14:49:17.272Z,10.10
2019-03-02T14:51:47.354Z,10.20
2019-03-02T14:54:29.552Z,10.10
2019-03-02T14:56:59.623Z,10.10
2019-03-02T14:59:38.574Z,10.00
2019-03-02T15:02:16.599Z,10.10
2019-03-02T15:05:02.285Z,10.20
2019-03-02T15:07:34.948Z,10.00
2019-03-02T15:10:08.740Z,10.00
2019-03-02T15:12:44.759Z,10.10
2019-03-02T15:15:21.178Z,10.10
2019-03-02T15:18:28.268Z,10.20
2019-03-02T15:20:57.050Z,10.10
2019-03-02T15:26:21.283Z,10.00
2019-03-02T15:29:10.030Z,10.00
2019-03-02T15:31:48.634Z,10.00
2019-03-02T15:34:30.805Z,9.90
2019-03-02T15:37:12.748Z,9.90
2019-03-02T15:39:55.076Z,9.90
2019-03-02T15:42:25.172Z,9.90
2019-03-02T15:45:11.644Z,9.80
2019-03-02T15:47:41.740Z,9.80
2019-03-02T15:50:17.271Z,9.80
2019-03-02T15:52:48.250Z,9.80
2019-03-02T15:55:35.257Z,9.80
2019-03-02T15:58:14.555Z,9.80
2019-03-02T16:00:46.550Z,9.70
2019-03-02T16:03:22.245Z,9.50
2019-03-02T16:06:07.632Z,9.30
2019-03-02T16:08:54.137Z,9.20
2019-03-02T16:11:32.170Z,9.10
2019-03-02T16:14:11.127Z,9.10
2019-03-02T16:16:44.332Z,9.00
2019-03-02T16:19:30.546Z,8.90
2019-03-02T16:22:03.501Z,8.90
2019-03-02T16:24:45.192Z,8.90
2019-03-02T16:27:15.368Z,9.00
2019-03-02T16:29:48.667Z,9.10
2019-03-02T16:32:20.227Z,9.10
2019-03-02T16:34:59.900Z,9.10
2019-03-02T16:37:34.959Z,9.10
2019-03-02T16:40:23.056Z,9.10
2019-03-02T16:43:05.447Z,9.20
2019-03-02T16:45:41.289Z,9.20
2019-03-02T16:48:28.993Z,9.20
2019-03-02T16:51:08.500Z,9.30
2019-03-02T16:53:41.641Z,9.30
2019-03-02T16:56:21.287Z,9.30
2019-03-02T16:59:01.632Z,9.30
2019-03-02T17:01:31.788Z,9.40
2019-03-02T17:04:04.352Z,9.40
2019-03-02T17:06:37.584Z,9.40
2019-03-02T17:09:24.933Z,9.40
2019-03-02T17:12:04.397Z,9.40
2019-03-02T17:14:50.894Z,9.40
2019-03-02T17:17:29.769Z,9.40
2019-03-02T17:20:01.373Z,9.30
2019-03-02T17:22:32.646Z,9.30
2019-03-02T17:25:12.821Z,9.30
2019-03-02T17:27:45.860Z,9.20
2019-03-02T17:30:21.349Z,9.20
2019-03-02T17:32:51.062Z,9.30
2019-03-02T17:35:38.636Z,9.20
2019-03-02T17:38:23.969Z,9.30
2019-03-02T17:40:54.069Z,9.30
2019-03-02T17:43:24.146Z,9.30
2019-03-02T17:46:07.597Z,9.30
2019-03-02T17:48:38.165Z,9.40
2019-03-02T17:51:23.563Z,9.40
2019-03-02T17:53:59.806Z,9.40
2019-03-02T17:56:28.266Z,9.40
2019-03-02T17:59:04.180Z,9.40
2019-03-02T18:01:45.795Z,9.30
2019-03-02T18:04:21.956Z,9.30
2019-03-02T18:07:00.659Z,9.30
2019-03-02T18:09:30.744Z,9.30
2019-03-02T18:12:03.532Z,9.40
2019-03-02T18:14:51.963Z,9.40
2019-03-02T18:17:22.060Z,9.30
2019-03-02T18:19:50.512Z,9.30
2019-03-02T18:22:20.060Z,9.30
2019-03-02T18:24:48.796Z,9.20
2019-03-02T18:27:17.280Z,9.30
2019-03-02T18:29:45.728Z,9.30
2019-03-02T18:32:14.292Z,9.30
2019-03-02T18:34:42.891Z,9.30
2019-03-02T18:37:11.333Z,9.20
2019-03-02T18:39:39.897Z,9.20
2019-03-02T18:42:08.472Z,9.20
2019-03-02T18:44:36.929Z,9.20
2019-03-02T18:47:05.778Z,9.20
2019-03-02T18:49:36.594Z,9.10
2019-03-02T18:52:25.467Z,9.10
2019-03-02T18:54:53.933Z,9.10
2019-03-02T18:57:22.380Z,9.10
2019-03-02T18:59:51.137Z,9.10
2019-03-02T19:02:19.576Z,9.20
2019-03-02T19:04:48.110Z,9.20
2019-03-02T19:07:16.546Z,9.20
2019-03-02T19:09:45.255Z,9.20
2019-03-02T19:12:13.759Z,9.30
2019-03-02T19:14:42.215Z,9.30
2019-03-02T19:17:10.729Z,9.30
2019-03-02T19:19:39.185Z,9.30
2019-03-02T19:22:07.681Z,9.30
2019-03-02T19:24:36.165Z,9.40
2019-03-02T19:27:04.736Z,9.40
2019-03-02T19:29:33.188Z,9.40
2019-03-02T19:32:01.625Z,9.50
2019-03-02T19:34:30.088Z,9.40
2019-03-02T19:36:58.521Z,9.40
2019-03-02T19:39:26.954Z,9.40
2019-03-02T19:41:55.413Z,9.50
2019-03-02T19:44:23.913Z,9.50
2019-03-02T19:46:52.369Z,9.40
2019-03-02T19:49:23.485Z,9.40
2019-03-02T19:51:51.938Z,9.50
2019-03-02T19:54:20.373Z,9.60
2019-03-02T19:56:48.833Z,9.60
2019-03-02T19:59:17.265Z,9.50
2019-03-02T20:01:47.357Z,9.60
2019-03-02T20:04:15.913Z,9.60
2019-03-02T20:06:44.444Z,9.50
2019-03-02T20:09:13.042Z,9.60
2019-03-02T20:11:41.492Z,9.60
2019-03-02T20:14:09.926Z,9.60
2019-03-02T20:16:38.395Z,9.60
2019-03-02T20:19:07.009Z,9.60
2019-03-02T20:21:35.528Z,9.60
2019-03-02T20:24:06.363Z,9.60
2019-03-02T20:26:34.589Z,9.60
2019-03-02T20:29:03.044Z,9.60
2019-03-02T20:31:31.559Z,9.70
2019-03-02T20:34:00.018Z,9.70
2019-03-02T20:36:28.470Z,9.70
2019-03-02T20:38:56.996Z,9.70
2019-03-02T20:41:25.431Z,9.70
2019-03-02T20:43:53.884Z,9.70
2019-03-02T20:46:22.341Z,9.60
2019-03-02T20:48:50.844Z,9.60
2019-03-02T20:51:19.353Z,9.60
2019-03-02T20:53:47.817Z,9.60
2019-03-02T20:56:16.316Z,9.60
2019-03-02T20:58:44.764Z,9.60
2019-03-02T21:01:13.476Z,9.60
2019-03-02T21:03:42.028Z,9.60
2019-03-02T21:06:10.497Z,9.60
2019-03-02T21:08:38.949Z,9.50
2019-03-02T21:11:07.443Z,9.50
2019-03-02T21:13:35.890Z,9.60
2019-03-02T21:16:04.466Z,9.60
2019-03-02T21:18:32.974Z,9.60
2019-03-02T21:21:01.487Z,9.60
2019-03-02T21:23:29.931Z,9.50
2019-03-02T21:25:58.452Z,9.40
2019-03-02T21:28:26.884Z,9.30
2019-03-02T21:30:55.337Z,9.20
2019-03-02T21:33:23.769Z,9.10
2019-03-02T21:35:52.323Z,9.10
2019-03-02T21:38:20.766Z,9.10
2019-03-02T21:40:49.231Z,9.10
2019-03-02T21:43:17.815Z,9.20
2019-03-02T21:45:46.313Z,9.10
2019-03-02T21:48:15.144Z,9.00
2019-03-02T21:50:52.643Z,9.00
2019-03-02T21:53:21.081Z,9.00
2019-03-02T21:55:49.693Z,8.90
2019-03-02T21:58:18.197Z,8.90
2019-03-02T22:00:46.725Z,9.00
2019-03-02T22:03:15.269Z,8.90
2019-03-02T22:05:43.965Z,8.90
2019-03-02T22:08:12.414Z,8.90
2019-03-02T22:11:04.845Z,9.00
2019-03-02T22:13:33.361Z,9.00
2019-03-02T22:16:01.841Z,9.00
2019-03-02T22:18:30.277Z,8.90
2019-03-02T22:20:58.726Z,9.00
2019-03-02T22:23:27.164Z,8.90
2019-03-02T22:25:55.614Z,8.90
2019-03-02T22:28:24.111Z,8.90
2019-03-02T22:30:52.548Z,8.90
2019-03-02T22:33:21.009Z,9.00
2019-03-02T22:35:49.500Z,8.90
2019-03-02T22:38:17.948Z,8.80
2019-03-02T22:40:46.396Z,8.80
2019-03-02T22:43:14.841Z,8.90
2019-03-02T22:45:43.286Z,8.80
2019-03-02T22:48:11.736Z,8.80
2019-03-02T22:50:40.320Z,8.80
2019-03-02T22:53:08.925Z,8.70
2019-03-02T22:55:37.357Z,8.80
2019-03-02T22:58:05.868Z,8.80
2019-03-02T23:00:45.992Z,8.80
2019-03-02T23:03:13.380Z,8.70
2019-03-02T23:05:41.969Z,8.70
2019-03-02T23:08:10.553Z,8.70
2019-03-02T23:10:39.001Z,8.70
2019-03-02T23:13:07.431Z,8.70
2019-03-02T23:15:35.991Z,8.60
2019-03-02T23:18:04.576Z,8.60
2019-03-02T23:20:33.032Z,8.70
2019-03-02T23:23:01.463Z,8.80
2019-03-02T23:25:29.917Z,8.80
2019-03-02T23:27:58.361Z,8.80
2019-03-02T23:30:27.287Z,8.70
2019-03-02T23:32:55.798Z,8.80
2019-03-02T23:35:24.355Z,8.80
2019-03-02T23:37:52.949Z,8.80
2019-03-02T23:40:23.577Z,8.80
2019-03-02T23:42:52.171Z,8.80
2019-03-02T23:45:21.039Z,8.90
2019-03-02T23:47:49.624Z,8.90
2019-03-02T23:50:18.192Z,8.90
2019-03-02T23:52:46.737Z,8.80
2019-03-02T23:55:15.804Z,8.90
2019-03-02T23:57:44.551Z,9.00
